Time;durP1;ratioP1;P1;durP2;ratioP2;P2;SDS_P1;SDS_P2;PMS_P1;PMS_P2;Temp;Humidity;BMP_temperature;BMP_pressure;BME280_temperature;BME280_humidity;BME280_pressure;Samples;Min_cycle;Max_cycle;Signal;HPM_P1;HPM_P2
2022/10/31 00:01:14;;;;;;;7.03;4.72;;;15.60;81.70;;;;;;5051295;28;20024;-68
2022/10/31 00:03:40;;;;;;;8.10;5.30;;;15.50;81.70;;;;;;5042151;28;20057;-68
2022/10/31 00:06:05;;;;;;;8.32;5.18;;;15.50;81.70;;;;;;5049842;28;20444;-68
2022/10/31 00:08:31;;;;;;;7.05;5.13;;;15.50;81.80;;;;;;5050920;28;20040;-68
2022/10/31 00:10:57;;;;;;;8.73;5.03;;;15.50;81.90;;;;;;5049419;28;20029;-69
2022/10/31 00:13:22;;;;;;;8.23;4.65;;;15.40;81.90;;;;;;5051489;28;20541;-69
2022/10/31 00:15:48;;;;;;;7.60;5.43;;;15.40;82.00;;;;;;5049385;28;20028;-70
2022/10/31 00:18:13;;;;;;;7.88;5.03;;;15.40;82.00;;;;;;5038056;28;20555;-69
2022/10/31 00:20:39;;;;;;;10.40;6.43;;;15.40;82.00;;;;;;5045113;28;20035;-69
2022/10/31 00:23:06;;;;;;;8.02;5.13;;;15.40;81.90;;;;;;5050850;28;20075;-68
2022/10/31 00:25:36;;;;;;;8.25;5.53;;;15.40;81.90;;;;;;5036598;28;20522;-68
2022/10/31 00:28:03;;;;;;;7.82;5.60;;;15.40;82.10;;;;;;5031257;28;20026;-68
2022/10/31 00:30:28;;;;;;;8.35;4.95;;;15.40;82.20;;;;;;5053153;28;20380;-68
2022/10/31 00:32:54;;;;;;;6.72;5.00;;;15.30;82.10;;;;;;5041288;28;20030;-68
2022/10/31 00:35:20;;;;;;;9.18;5.88;;;15.30;82.20;;;;;;5042708;28;20033;-68
2022/10/31 00:37:45;;;;;;;7.30;4.75;;;15.30;82.20;;;;;;5039762;28;20025;-68
2022/10/31 00:40:11;;;;;;;6.75;5.15;;;15.30;82.30;;;;;;5049800;28;20028;-68
2022/10/31 00:42:36;;;;;;;9.80;5.30;;;15.20;82.20;;;;;;5037285;28;20101;-68
2022/10/31 00:45:02;;;;;;;7.78;5.13;;;15.20;82.40;;;;;;5050212;28;20676;-69
2022/10/31 00:47:28;;;;;;;7.38;4.45;;;15.20;82.40;;;;;;5048825;28;20083;-69
2022/10/31 00:49:53;;;;;;;6.30;4.03;;;15.20;82.40;;;;;;5039070;28;20037;-68
2022/10/31 00:52:19;;;;;;;6.97;4.47;;;15.20;82.40;;;;;;5039594;28;20044;-68
2022/10/31 00:54:44;;;;;;;6.07;4.40;;;15.20;82.40;;;;;;5038855;28;20035;-68
2022/10/31 00:57:10;;;;;;;8.57;4.60;;;15.20;82.40;;;;;;5049411;28;20040;-68
2022/10/31 00:59:35;;;;;;;5.88;4.40;;;15.20;82.40;;;;;;5049336;28;20485;-67
2022/10/31 01:02:01;;;;;;;5.45;3.70;;;15.20;82.40;;;;;;5035038;28;20029;-67
2022/10/31 01:04:26;;;;;;;6.90;4.35;;;15.20;82.40;;;;;;5045525;28;20025;-68
2022/10/31 01:06:52;;;;;;;5.90;4.15;;;15.20;82.40;;;;;;5050226;28;20025;-68
2022/10/31 01:09:17;;;;;;;7.28;4.53;;;15.20;82.20;;;;;;5050915;28;20055;-67
2022/10/31 01:11:43;;;;;;;7.22;4.80;;;15.20;82.30;;;;;;5048882;28;20044;-68
2022/10/31 01:14:09;;;;;;;6.43;4.68;;;15.20;82.30;;;;;;5036270;28;20047;-68
2022/10/31 01:16:35;;;;;;;6.18;4.18;;;15.20;82.30;;;;;;5042514;28;20031;-67
2022/10/31 01:19:00;;;;;;;9.10;4.78;;;15.10;82.30;;;;;;5050465;28;20017;-68
2022/10/31 01:21:28;;;;;;;8.57;4.80;;;15.10;82.30;;;;;;5038972;28;20025;-69
2022/10/31 01:23:55;;;;;;;9.05;4.88;;;15.10;82.20;;;;;;5040273;28;20048;-67
2022/10/31 01:26:26;;;;;;;7.93;4.43;;;15.10;82.30;;;;;;5040130;28;20025;-68
2022/10/31 01:28:57;;;;;;;5.23;4.20;;;15.10;82.30;;;;;;5049524;28;20064;-68
2022/10/31 01:31:25;;;;;;;5.60;4.20;;;15.10;82.40;;;;;;5041011;28;20500;-68
2022/10/31 01:33:51;;;;;;;6.38;4.45;;;15.00;82.40;;;;;;5042360;28;20051;-67
2022/10/31 01:36:22;;;;;;;8.45;4.90;;;15.00;82.40;;;;;;5041360;28;20040;-67
2022/10/31 01:38:49;;;;;;;7.18;4.80;;;15.00;82.40;;;;;;5048582;28;20036;-68
2022/10/31 01:41:17;;;;;;;6.15;4.15;;;15.00;82.40;;;;;;5045567;28;20108;-68
2022/10/31 01:43:51;;;;;;;6.53;4.20;;;15.00;82.50;;;;;;5030193;28;20604;-68
2022/10/31 01:46:33;;;;;;;7.20;4.50;;;15.00;82.40;;;;;;5030730;28;20040;-67
2022/10/31 01:49:02;;;;;;;7.90;5.55;;;15.00;82.30;;;;;;5037538;28;20025;-68
2022/10/31 01:51:34;;;;;;;6.50;4.90;;;15.00;82.20;;;;;;5038543;28;20024;-68
2022/10/31 01:54:05;;;;;;;7.75;4.22;;;14.90;82.30;;;;;;5047187;28;20106;-68
2022/10/31 01:56:34;;;;;;;8.10;4.60;;;14.90;82.40;;;;;;5048963;28;20431;-68
2022/10/31 01:59:01;;;;;;;6.15;4.38;;;14.90;83.00;;;;;;5040522;28;20480;-68
2022/10/31 02:01:28;;;;;;;6.10;4.15;;;14.90;82.10;;;;;;5035957;28;20025;-70
2022/10/31 02:03:55;;;;;;;5.60;4.13;;;14.90;82.00;;;;;;5044590;28;20428;-68
2022/10/31 02:06:45;;;;;;;7.82;4.45;;;14.90;82.10;;;;;;5030063;28;20122;-67
2022/10/31 02:09:12;;;;;;;9.15;4.20;;;14.90;82.00;;;;;;5019364;28;20109;-67
2022/10/31 02:11:38;;;;;;;5.45;4.32;;;14.90;81.90;;;;;;5045955;28;20024;-67
2022/10/31 02:14:04;;;;;;;5.45;4.10;;;14.80;81.90;;;;;;5040172;28;20156;-67
2022/10/31 02:16:29;;;;;;;6.30;4.28;;;14.80;81.90;;;;;;5040682;28;20021;-68
2022/10/31 02:18:56;;;;;;;6.85;4.72;;;14.80;82.00;;;;;;5049472;28;20025;-68
2022/10/31 02:21:48;;;;;;;6.82;4.70;;;14.70;82.00;;;;;;5048330;28;20093;-68
2022/10/31 02:24:37;;;;;;;7.75;4.95;;;14.70;81.90;;;;;;5048840;28;20072;-67
2022/10/31 02:27:16;;;;;;;7.32;4.72;;;14.80;81.60;;;;;;5042180;28;20022;-68
2022/10/31 02:30:18;;;;;;;5.25;3.95;;;14.70;81.50;;;;;;5032198;28;20502;-68
2022/10/31 02:33:13;;;;;;;5.47;4.10;;;14.60;81.70;;;;;;5029785;28;20064;-67
2022/10/31 02:36:12;;;;;;;6.97;4.43;;;14.50;81.80;;;;;;5040500;28;20637;-67
2022/10/31 02:38:40;;;;;;;7.65;4.20;;;14.50;82.00;;;;;;5047124;28;20033;-66
2022/10/31 02:41:06;;;;;;;8.10;4.40;;;14.40;82.00;;;;;;5034961;28;20096;-66
2022/10/31 02:43:47;;;;;;;6.03;4.18;;;14.40;82.00;;;;;;5034025;28;20029;-67
2022/10/31 02:46:15;;;;;;;8.05;4.85;;;14.40;81.80;;;;;;5035923;28;20458;-67
2022/10/31 02:48:44;;;;;;;6.80;4.60;;;14.40;81.80;;;;;;5036968;28;20033;-68
2022/10/31 02:51:11;;;;;;;7.38;4.70;;;14.40;81.90;;;;;;5038946;28;20033;-69
2022/10/31 02:53:37;;;;;;;6.97;5.50;;;14.40;81.80;;;;;;5044760;28;20044;-67
2022/10/31 02:56:18;;;;;;;7.70;4.50;;;14.40;81.70;;;;;;5043252;28;20025;-67
2022/10/31 02:58:51;;;;;;;8.27;4.75;;;14.40;81.60;;;;;;5050697;28;20428;-68
2022/10/31 03:01:26;;;;;;;7.47;4.63;;;14.30;81.60;;;;;;5047896;28;20020;-67
2022/10/31 03:04:22;;;;;;;6.97;4.88;;;14.40;81.60;;;;;;5036891;28;20036;-70
2022/10/31 03:06:57;;;;;;;7.30;5.03;;;14.40;81.60;;;;;;5047593;28;20530;-69
2022/10/31 03:09:36;;;;;;;7.70;5.07;;;14.30;81.60;;;;;;5042742;28;20573;-69
2022/10/31 03:12:10;;;;;;;7.50;5.15;;;14.30;81.60;;;;;;5047613;28;20656;-69
2022/10/31 03:14:45;;;;;;;8.23;4.90;;;14.30;81.90;;;;;;5040258;28;20055;-68
2022/10/31 03:17:25;;;;;;;7.05;4.97;;;14.20;82.00;;;;;;5047899;28;20035;-68
2022/10/31 03:19:54;;;;;;;7.95;5.40;;;14.20;82.20;;;;;;5030622;28;20022;-69
2022/10/31 03:22:26;;;;;;;7.07;5.30;;;14.20;82.20;;;;;;5030208;28;20025;-68
2022/10/31 03:24:54;;;;;;;7.72;5.47;;;14.20;82.20;;;;;;5035329;28;20041;-69
2022/10/31 03:27:26;;;;;;;6.60;4.75;;;14.20;82.20;;;;;;5030663;28;20022;-68
2022/10/31 03:29:57;;;;;;;7.80;5.18;;;14.10;82.20;;;;;;5048610;28;20094;-70
2022/10/31 03:32:27;;;;;;;7.87;4.67;;;14.10;82.30;;;;;;5043637;28;20025;-69
2022/10/31 03:34:58;;;;;;;7.63;5.07;;;14.00;82.40;;;;;;5038200;28;20025;-69
2022/10/31 03:37:27;;;;;;;8.25;5.05;;;13.90;82.50;;;;;;5037899;28;20025;-69
2022/10/31 03:39:54;;;;;;;8.13;6.20;;;13.90;82.50;;;;;;5043028;28;20018;-68
2022/10/31 03:42:33;;;;;;;7.63;5.30;;;13.90;82.40;;;;;;5033522;28;20104;-69
2022/10/31 03:45:12;;;;;;;7.20;5.50;;;13.90;82.20;;;;;;5046035;28;20033;-70
2022/10/31 03:47:39;;;;;;;6.45;4.90;;;13.80;82.10;;;;;;5031696;28;20029;-70
2022/10/31 03:50:07;;;;;;;8.63;5.50;;;13.80;82.10;;;;;;5048490;28;20063;-69
2022/10/31 03:52:54;;;;;;;8.20;5.40;;;13.80;82.20;;;;;;5041332;28;20040;-68
2022/10/31 03:55:34;;;;;;;6.93;5.22;;;13.80;82.10;;;;;;5048912;28;20017;-70
2022/10/31 03:58:05;;;;;;;8.00;5.63;;;13.80;82.10;;;;;;5036273;28;20040;-69
2022/10/31 04:00:32;;;;;;;10.17;5.63;;;13.80;82.10;;;;;;5051019;28;20112;-69
2022/10/31 04:03:05;;;;;;;7.43;5.53;;;13.80;82.20;;;;;;5050460;28;20067;-70
2022/10/31 04:05:32;;;;;;;8.45;5.25;;;13.70;82.30;;;;;;5046572;28;20119;-69
2022/10/31 04:07:59;;;;;;;7.32;5.30;;;13.70;82.50;;;;;;5035454;28;20034;-70
2022/10/31 04:10:27;;;;;;;7.70;5.95;;;13.70;82.60;;;;;;5050344;28;20048;-70
2022/10/31 04:12:59;;;;;;;8.70;6.00;;;13.70;82.80;;;;;;5050706;28;20025;-70
2022/10/31 04:15:26;;;;;;;9.02;5.70;;;13.70;82.90;;;;;;5030641;28;20431;-70
2022/10/31 04:17:55;;;;;;;8.45;6.00;;;13.60;82.90;;;;;;5031781;28;20034;-69
2022/10/31 04:20:30;;;;;;;8.82;6.00;;;13.60;83.00;;;;;;5046472;28;20118;-71
2022/10/31 04:22:55;;;;;;;9.43;6.80;;;13.70;83.10;;;;;;5030377;28;20037;-69
2022/10/31 04:25:21;;;;;;;8.70;6.18;;;13.60;83.10;;;;;;5042428;28;20033;-71
2022/10/31 04:27:46;;;;;;;7.95;6.20;;;13.60;83.10;;;;;;5035409;28;20025;-70
2022/10/31 04:30:12;;;;;;;8.75;5.82;;;13.70;83.10;;;;;;5047221;28;20027;-69
2022/10/31 04:32:37;;;;;;;11.55;6.80;;;13.70;83.00;;;;;;5048925;28;20455;-70
2022/10/31 04:35:03;;;;;;;8.65;5.65;;;13.70;82.90;;;;;;5039678;28;20028;-69
2022/10/31 04:37:29;;;;;;;10.13;6.50;;;13.70;83.00;;;;;;5045044;28;20025;-70
2022/10/31 04:39:54;;;;;;;8.60;6.38;;;13.70;83.10;;;;;;5050518;28;20116;-70
2022/10/31 04:42:20;;;;;;;9.10;6.35;;;13.60;83.10;;;;;;5049747;28;20495;-70
2022/10/31 04:44:45;;;;;;;9.50;6.10;;;13.60;83.00;;;;;;5055828;28;20039;-69
2022/10/31 04:47:11;;;;;;;6.70;5.65;;;13.50;83.00;;;;;;5040281;28;20037;-69
2022/10/31 04:49:36;;;;;;;9.98;6.40;;;13.50;83.20;;;;;;5046601;28;20085;-69
2022/10/31 04:52:02;;;;;;;9.00;6.43;;;13.50;83.10;;;;;;5040059;28;20050;-70
2022/10/31 04:54:27;;;;;;;9.15;6.07;;;13.40;83.20;;;;;;5041163;28;20095;-70
2022/10/31 04:56:53;;;;;;;8.98;6.80;;;13.40;83.20;;;;;;5031270;28;20018;-71
2022/10/31 04:59:18;;;;;;;10.40;6.50;;;13.40;83.20;;;;;;5046520;28;20483;-69
2022/10/31 05:01:44;;;;;;;8.18;6.13;;;13.50;83.00;;;;;;5048421;28;20027;-70
2022/10/31 05:04:09;;;;;;;9.02;6.10;;;13.50;83.00;;;;;;5039772;28;20072;-69
2022/10/31 05:06:35;;;;;;;8.65;6.40;;;13.50;83.10;;;;;;5040235;28;20032;-69
2022/10/31 05:09:01;;;;;;;9.43;6.72;;;13.50;83.10;;;;;;5036384;28;20021;-70
2022/10/31 05:11:26;;;;;;;9.77;6.50;;;13.50;83.10;;;;;;5050246;28;20442;-69
2022/10/31 05:13:52;;;;;;;9.38;6.90;;;13.50;83.00;;;;;;5039110;28;20025;-69
2022/10/31 05:16:17;;;;;;;10.27;6.97;;;13.50;83.10;;;;;;5038216;28;20484;-68
2022/10/31 05:18:43;;;;;;;9.50;7.05;;;13.60;83.10;;;;;;5045032;28;20021;-69
2022/10/31 05:21:08;;;;;;;11.13;7.60;;;13.60;83.10;;;;;;5031041;28;20029;-69
2022/10/31 05:23:34;;;;;;;10.45;6.82;;;13.60;83.00;;;;;;5039379;28;20049;-69
2022/10/31 05:25:59;;;;;;;10.63;7.40;;;13.60;83.00;;;;;;5047482;28;20564;-70
2022/10/31 05:28:25;;;;;;;10.98;8.38;;;13.60;83.10;;;;;;5050032;28;20116;-68
2022/10/31 05:30:50;;;;;;;10.93;7.30;;;13.60;83.20;;;;;;5038503;28;20056;-70
2022/10/31 05:33:16;;;;;;;13.10;7.70;;;13.60;83.40;;;;;;5030065;28;20030;-69
2022/10/31 05:35:41;;;;;;;10.63;7.38;;;13.60;83.60;;;;;;5045685;28;20032;-70
2022/10/31 05:38:07;;;;;;;11.70;7.88;;;13.60;83.70;;;;;;5043926;28;20428;-70
2022/10/31 05:40:32;;;;;;;11.65;7.88;;;13.60;83.70;;;;;;5048618;28;20441;-71
2022/10/31 05:42:58;;;;;;;10.63;7.13;;;13.70;83.70;;;;;;5039014;28;20179;-70
2022/10/31 05:45:24;;;;;;;11.52;7.47;;;13.70;83.60;;;;;;5037757;28;20060;-71
2022/10/31 05:48:00;;;;;;;11.63;7.25;;;13.80;83.60;;;;;;5031451;28;20094;-70
2022/10/31 05:50:28;;;;;;;10.05;7.60;;;13.70;83.60;;;;;;5047258;28;20025;-70
2022/10/31 05:53:02;;;;;;;9.85;7.65;;;13.70;83.60;;;;;;5034507;28;20029;-70
2022/10/31 05:55:29;;;;;;;9.68;6.60;;;13.80;83.60;;;;;;5046432;28;20017;-69
2022/10/31 05:57:55;;;;;;;9.32;6.40;;;13.70;83.60;;;;;;5048463;28;20613;-68
2022/10/31 06:00:21;;;;;;;8.65;6.85;;;13.70;83.70;;;;;;5038862;28;20559;-69
2022/10/31 06:02:47;;;;;;;9.05;6.90;;;13.70;83.70;;;;;;5045491;28;20024;-66
2022/10/31 06:05:13;;;;;;;10.75;6.97;;;13.80;83.70;;;;;;5047077;28;20032;-70
2022/10/31 06:07:38;;;;;;;10.38;7.18;;;13.80;83.70;;;;;;5038710;28;20021;-70
2022/10/31 06:10:06;;;;;;;9.30;7.07;;;13.80;83.60;;;;;;5047312;28;20021;-70
2022/10/31 06:12:37;;;;;;;9.18;6.90;;;13.80;83.60;;;;;;5039053;28;20036;-70
2022/10/31 06:15:04;;;;;;;10.73;7.70;;;13.90;83.60;;;;;;5039734;28;20079;-70
2022/10/31 06:17:29;;;;;;;11.48;7.38;;;13.90;83.50;;;;;;5048617;28;20032;-69
2022/10/31 06:19:55;;;;;;;11.25;7.78;;;13.90;83.60;;;;;;5042784;28;20087;-69
2022/10/31 06:22:21;;;;;;;10.35;7.43;;;13.80;83.70;;;;;;5049157;28;20074;-70
2022/10/31 06:24:46;;;;;;;9.40;6.97;;;13.90;83.80;;;;;;5038932;28;20036;-69
2022/10/31 06:27:12;;;;;;;9.88;6.82;;;13.80;83.80;;;;;;5032626;28;20448;-68
2022/10/31 06:29:37;;;;;;;10.02;7.43;;;13.80;83.80;;;;;;5039042;28;20795;-69
2022/10/31 06:32:03;;;;;;;10.60;7.38;;;13.80;83.80;;;;;;5043972;28;20120;-69
2022/10/31 06:34:28;;;;;;;9.50;7.10;;;13.80;83.80;;;;;;5040804;28;20025;-69
2022/10/31 06:36:54;;;;;;;9.93;6.90;;;13.80;83.80;;;;;;5039098;28;20041;-67
2022/10/31 06:39:19;;;;;;;11.77;7.97;;;13.80;83.80;;;;;;5047278;28;20025;-69
2022/10/31 06:41:48;;;;;;;11.10;7.07;;;13.70;83.80;;;;;;5044594;28;20067;-69
2022/10/31 06:44:13;;;;;;;10.30;7.30;;;13.70;83.90;;;;;;5047711;28;20017;-69
2022/10/31 06:46:39;;;;;;;10.70;7.57;;;13.70;84.00;;;;;;5047967;28;20032;-68
2022/10/31 06:49:04;;;;;;;12.32;7.75;;;13.80;84.10;;;;;;5047370;28;20047;-69
2022/10/31 06:51:30;;;;;;;10.65;7.82;;;13.80;84.00;;;;;;5037796;28;20047;-71
2022/10/31 06:53:56;;;;;;;10.50;7.57;;;13.70;83.90;;;;;;5043937;28;20536;-68
2022/10/31 06:56:21;;;;;;;10.18;7.32;;;13.70;84.00;;;;;;5030483;28;20053;-69
2022/10/31 06:58:47;;;;;;;9.73;7.30;;;13.70;84.10;;;;;;5036673;28;20164;-69
2022/10/31 07:01:12;;;;;;;9.85;7.40;;;13.70;84.20;;;;;;5032336;28;20025;-69
2022/10/31 07:03:38;;;;;;;10.85;7.50;;;13.70;84.10;;;;;;5031969;28;20037;-68
2022/10/31 07:06:03;;;;;;;9.20;6.60;;;13.80;84.10;;;;;;5035789;28;20029;-67
2022/10/31 07:08:29;;;;;;;10.40;7.20;;;13.80;83.90;;;;;;5034397;28;20377;-69
2022/10/31 07:10:57;;;;;;;10.70;7.85;;;13.80;83.80;;;;;;5033963;28;20037;-69
2022/10/31 07:13:26;;;;;;;10.20;7.20;;;13.80;83.80;;;;;;5034968;28;20452;-68
2022/10/31 07:15:54;;;;;;;9.95;7.00;;;13.90;83.70;;;;;;5043775;28;20029;-68
2022/10/31 07:18:20;;;;;;;8.80;6.53;;;13.90;83.70;;;;;;5049273;28;20071;-68
2022/10/31 07:20:46;;;;;;;8.90;6.65;;;13.90;83.70;;;;;;5041310;28;20021;-68
2022/10/31 07:23:12;;;;;;;9.48;6.78;;;13.90;83.80;;;;;;5046475;28;20079;-67
2022/10/31 07:25:39;;;;;;;9.95;6.75;;;14.00;83.70;;;;;;5038591;28;20540;-68
2022/10/31 07:28:05;;;;;;;10.60;6.95;;;14.00;83.70;;;;;;5052510;28;20024;-68
2022/10/31 07:30:30;;;;;;;10.88;7.95;;;14.00;83.70;;;;;;5044303;28;20048;-67
2022/10/31 07:32:56;;;;;;;11.85;7.78;;;14.00;83.70;;;;;;5041246;28;20048;-68
2022/10/31 07:35:27;;;;;;;14.50;8.73;;;14.10;83.80;;;;;;5042532;28;20365;-69
2022/10/31 07:37:54;;;;;;;9.60;6.95;;;14.10;83.70;;;;;;5045031;28;20033;-69
2022/10/31 07:40:21;;;;;;;9.15;7.05;;;14.20;83.70;;;;;;5051098;28;20491;-68
2022/10/31 07:42:48;;;;;;;11.23;8.98;;;14.20;83.70;;;;;;5036506;28;20037;-69
2022/10/31 07:45:16;;;;;;;12.30;8.65;;;14.20;83.80;;;;;;5046345;28;20092;-69
2022/10/31 07:47:49;;;;;;;10.13;6.70;;;14.20;84.10;;;;;;5045923;28;20056;-69
2022/10/31 07:50:20;;;;;;;10.05;7.82;;;14.20;84.20;;;;;;5045598;28;20075;-68
2022/10/31 07:52:46;;;;;;;13.60;9.00;;;14.30;84.30;;;;;;5040540;28;20389;-68
2022/10/31 07:55:12;;;;;;;9.27;7.10;;;14.30;84.50;;;;;;5052852;28;20100;-68
2022/10/31 07:57:38;;;;;;;11.55;8.52;;;14.40;84.50;;;;;;5047215;28;20044;-68
2022/10/31 08:00:08;;;;;;;13.05;8.20;;;14.40;84.70;;;;;;5048135;28;20025;-68
2022/10/31 08:02:34;;;;;;;12.50;8.68;;;14.40;84.80;;;;;;5037045;28;20021;-68
2022/10/31 08:05:01;;;;;;;14.68;10.52;;;14.40;85.10;;;;;;5035377;28;20035;-68
2022/10/31 08:07:28;;;;;;;10.38;7.70;;;14.50;85.40;;;;;;5042273;28;20036;-68
2022/10/31 08:09:54;;;;;;;12.77;8.45;;;14.50;85.70;;;;;;5042219;28;20026;-68
2022/10/31 08:12:20;;;;;;;12.52;8.20;;;14.50;85.70;;;;;;5050338;28;20067;-69
2022/10/31 08:14:45;;;;;;;11.50;8.07;;;14.60;85.80;;;;;;5057521;28;20016;-69
2022/10/31 08:17:11;;;;;;;13.77;10.15;;;14.70;85.60;;;;;;5042892;28;20055;-68
2022/10/31 08:19:37;;;;;;;11.23;8.38;;;14.70;85.80;;;;;;5040719;28;20691;-68
2022/10/31 08:22:02;;;;;;;17.02;11.40;;;14.80;85.80;;;;;;5044878;28;20035;-69
2022/10/31 08:24:28;;;;;;;15.13;10.88;;;14.80;85.90;;;;;;5039097;28;20128;-69
2022/10/31 08:26:53;;;;;;;17.33;13.07;;;14.70;85.90;;;;;;5036865;28;20127;-70
2022/10/31 08:29:19;;;;;;;18.65;13.40;;;14.70;86.00;;;;;;5043130;28;20037;-68
2022/10/31 08:31:45;;;;;;;14.98;11.77;;;14.70;86.30;;;;;;5043179;28;20025;-70
2022/10/31 08:34:10;;;;;;;17.90;13.35;;;14.60;86.30;;;;;;5038109;28;20100;-67
2022/10/31 08:36:36;;;;;;;13.68;9.27;;;14.60;86.30;;;;;;5036842;28;20029;-67
2022/10/31 08:39:01;;;;;;;17.35;12.73;;;14.60;86.10;;;;;;5039682;28;20025;-69
2022/10/31 08:41:27;;;;;;;15.25;10.55;;;14.70;86.10;;;;;;5039944;28;20026;-69
2022/10/31 08:43:52;;;;;;;18.63;12.13;;;14.70;86.00;;;;;;5043387;28;20086;-69
2022/10/31 08:46:18;;;;;;;16.73;12.35;;;14.70;86.00;;;;;;5038286;28;20563;-67
2022/10/31 08:48:44;;;;;;;15.30;10.55;;;14.80;86.10;;;;;;5041434;28;20025;-69
2022/10/31 08:51:10;;;;;;;15.93;9.75;;;14.80;85.90;;;;;;5038174;28;20033;-69
2022/10/31 08:53:36;;;;;;;12.02;8.73;;;15.00;85.70;;;;;;5040108;28;20033;-69
2022/10/31 08:56:04;;;;;;;9.95;7.40;;;15.10;85.60;;;;;;5036137;28;20021;-69
2022/10/31 08:58:30;;;;;;;14.65;10.98;;;15.20;85.30;;;;;;5035517;28;20089;-68
2022/10/31 09:00:56;;;;;;;12.80;8.88;;;15.20;85.00;;;;;;5035580;28;20123;-69
2022/10/31 09:03:24;;;;;;;12.05;8.65;;;15.30;84.90;;;;;;5040020;28;20043;-68
2022/10/31 09:05:50;;;;;;;14.75;10.73;;;15.40;84.70;;;;;;5046394;28;20133;-68
2022/10/31 09:08:16;;;;;;;12.77;9.32;;;15.40;84.60;;;;;;5046709;28;20406;-68
2022/10/31 09:10:42;;;;;;;12.77;8.70;;;15.40;84.60;;;;;;5036355;28;20025;-68
2022/10/31 09:13:14;;;;;;;12.40;9.00;;;15.40;84.40;;;;;;5042162;28;20040;-67
2022/10/31 09:15:43;;;;;;;10.07;7.60;;;15.50;85.00;;;;;;5049007;28;20029;-67
2022/10/31 09:18:09;;;;;;;14.45;10.65;;;15.50;84.30;;;;;;5044533;28;20070;-68
2022/10/31 09:20:36;;;;;;;11.63;7.75;;;15.50;83.90;;;;;;5048378;28;20021;-68
2022/10/31 09:23:09;;;;;;;11.35;8.02;;;15.60;84.00;;;;;;5046856;28;20025;-68
2022/10/31 09:25:35;;;;;;;24.98;17.77;;;15.70;83.70;;;;;;5044524;28;20095;-68
2022/10/31 09:28:03;;;;;;;21.33;15.30;;;15.80;86.40;;;;;;5040281;28;20028;-68
2022/10/31 09:30:31;;;;;;;21.33;14.88;;;15.90;89.70;;;;;;5040924;28;20107;-68
2022/10/31 09:33:02;;;;;;;17.63;13.48;;;15.90;90.20;;;;;;5043927;28;20086;-69
2022/10/31 09:35:28;;;;;;;16.80;12.95;;;15.80;88.50;;;;;;5043748;28;20064;-69
2022/10/31 09:38:00;;;;;;;15.93;12.13;;;15.80;88.10;;;;;;5037971;28;20032;-68
2022/10/31 09:40:38;;;;;;;23.85;16.42;;;15.80;88.20;;;;;;5042053;28;20028;-68
2022/10/31 09:43:32;;;;;;;20.15;15.38;;;15.80;87.40;;;;;;5040318;28;20053;-69
2022/10/31 09:46:28;;;;;;;18.38;13.60;;;15.70;86.80;;;;;;5030318;28;20029;-69
2022/10/31 09:49:00;;;;;;;19.15;12.50;;;15.70;86.80;;;;;;5035606;28;20052;-69
2022/10/31 09:51:30;;;;;;;18.73;13.80;;;15.90;86.60;;;;;;5041954;28;20031;-69
2022/10/31 09:54:03;;;;;;;17.70;12.55;;;15.90;86.40;;;;;;5056706;28;20035;-68
2022/10/31 09:56:30;;;;;;;14.82;11.38;;;16.00;86.20;;;;;;5042478;28;20030;-69
2022/10/31 09:59:01;;;;;;;15.23;12.13;;;16.10;86.20;;;;;;5030794;28;20022;-68
2022/10/31 10:01:37;;;;;;;18.60;12.23;;;16.20;86.70;;;;;;5036883;28;20021;-69
2022/10/31 10:04:29;;;;;;;18.15;13.48;;;16.20;85.80;;;;;;5042526;28;20047;-69
2022/10/31 10:06:55;;;;;;;18.25;12.30;;;16.20;85.70;;;;;;5037226;28;20028;-69
2022/10/31 10:09:25;;;;;;;17.48;13.45;;;16.20;85.60;;;;;;5048757;28;20508;-68
2022/10/31 10:12:00;;;;;;;18.85;13.90;;;16.20;85.70;;;;;;5028465;28;20104;-68
2022/10/31 10:14:44;;;;;;;15.73;11.63;;;16.20;85.80;;;;;;5038758;28;20044;-68
2022/10/31 10:17:31;;;;;;;18.58;14.13;;;16.20;85.80;;;;;;5050265;28;20067;-68
2022/10/31 10:20:00;;;;;;;18.20;11.73;;;16.30;85.80;;;;;;5044289;28;20162;-69
2022/10/31 10:22:54;;;;;;;17.83;12.40;;;16.30;85.60;;;;;;5042480;28;20395;-68
2022/10/31 10:25:23;;;;;;;22.45;16.50;;;16.30;85.50;;;;;;5033035;28;20502;-69
2022/10/31 10:28:03;;;;;;;22.42;15.75;;;16.30;85.60;;;;;;5047034;28;20033;-68
2022/10/31 10:30:35;;;;;;;26.27;17.02;;;16.30;85.90;;;;;;5049013;28;20411;-69
2022/10/31 10:33:12;;;;;;;24.35;17.10;;;16.30;85.80;;;;;;5037744;28;20546;-68
2022/10/31 10:35:47;;;;;;;20.90;14.80;;;16.20;86.00;;;;;;5030520;28;20512;-69
2022/10/31 10:38:16;;;;;;;17.65;13.65;;;16.30;86.20;;;;;;5046256;28;20078;-69
2022/10/31 10:40:42;;;;;;;19.60;13.35;;;16.40;86.20;;;;;;5044929;28;20021;-68
2022/10/31 10:43:23;;;;;;;18.77;12.75;;;16.50;85.90;;;;;;5041446;28;20403;-69
2022/10/31 10:49:33;;;;;;;23.45;15.43;;;16.70;85.60;;;;;;5054520;28;20039;-69
2022/10/31 10:51:59;;;;;;;19.73;12.43;;;16.60;85.30;;;;;;5069056;28;20021;-69
2022/10/31 10:54:41;;;;;;;20.65;14.80;;;16.60;85.30;;;;;;5052741;28;20017;-70
2022/10/31 10:57:20;;;;;;;20.15;13.60;;;16.50;85.70;;;;;;5044464;28;20423;-69
2022/10/31 10:59:46;;;;;;;22.92;16.45;;;16.60;85.70;;;;;;5029923;28;20531;-68
2022/10/31 11:02:26;;;;;;;22.48;15.55;;;16.70;85.50;;;;;;5031518;28;20622;-69
2022/10/31 11:04:57;;;;;;;23.15;14.75;;;16.90;85.60;;;;;;5045389;28;20021;-70
2022/10/31 11:07:22;;;;;;;19.50;15.07;;;17.00;85.10;;;;;;5041564;28;20025;-69
2022/10/31 11:09:48;;;;;;;24.77;17.40;;;17.00;84.90;;;;;;5042896;28;20039;-70
2022/10/31 11:12:32;;;;;;;22.20;13.85;;;17.10;84.40;;;;;;5046518;28;20032;-69
2022/10/31 11:15:06;;;;;;;22.58;15.77;;;17.20;84.20;;;;;;5048707;28;20036;-69
2022/10/31 11:17:36;;;;;;;29.45;18.17;;;17.30;83.80;;;;;;5044243;28;20059;-69
2022/10/31 11:20:13;;;;;;;25.40;19.08;;;17.30;83.20;;;;;;5035211;28;20403;-70
2022/10/31 11:22:44;;;;;;;20.30;13.20;;;17.30;83.40;;;;;;5040016;28;20052;-69
2022/10/31 11:25:23;;;;;;;22.73;15.70;;;17.40;83.20;;;;;;5048144;28;20103;-68
2022/10/31 11:28:04;;;;;;;25.38;17.83;;;17.40;83.00;;;;;;5047695;28;20131;-69
2022/10/31 11:30:35;;;;;;;30.30;19.25;;;17.40;82.40;;;;;;5041178;28;20113;-68
2022/10/31 11:33:00;;;;;;;26.73;18.52;;;17.40;82.00;;;;;;5045904;28;20025;-69
2022/10/31 11:35:28;;;;;;;26.13;16.35;;;17.30;81.90;;;;;;5046694;28;20544;-69
2022/10/31 11:37:58;;;;;;;25.33;16.83;;;17.30;82.20;;;;;;5029666;28;20017;-68
2022/10/31 11:40:26;;;;;;;26.80;17.95;;;17.30;82.10;;;;;;5033683;28;20452;-68
2022/10/31 11:42:54;;;;;;;30.25;19.77;;;17.40;82.20;;;;;;5045746;28;20036;-68
2022/10/31 11:45:23;;;;;;;29.38;18.35;;;17.30;81.70;;;;;;5046464;28;20076;-69
2022/10/31 11:47:51;;;;;;;25.65;17.38;;;17.30;81.60;;;;;;5040095;28;20480;-70
2022/10/31 11:50:31;;;;;;;24.70;15.63;;;17.40;81.70;;;;;;5041189;28;20033;-69
2022/10/31 11:52:56;;;;;;;27.25;18.52;;;17.40;81.60;;;;;;5045383;28;20028;-69
2022/10/31 11:55:34;;;;;;;30.17;19.55;;;17.30;81.30;;;;;;5030569;28;20033;-68
2022/10/31 11:58:00;;;;;;;27.80;17.73;;;17.30;81.80;;;;;;5036316;28;20026;-68
2022/10/31 12:00:32;;;;;;;30.13;20.17;;;17.30;81.50;;;;;;5045268;28;20036;-69
2022/10/31 12:03:22;;;;;;;28.27;19.55;;;17.20;81.30;;;;;;5032631;28;20018;-69
2022/10/31 12:06:32;;;;;;;26.30;16.25;;;17.30;81.80;;;;;;5046646;28;20036;-68
2022/10/31 12:08:59;;;;;;;22.05;13.90;;;17.30;82.00;;;;;;5014105;28;20091;-69
2022/10/31 12:11:40;;;;;;;28.52;17.52;;;17.40;82.00;;;;;;5037300;28;20106;-68
2022/10/31 12:14:15;;;;;;;28.27;16.75;;;17.40;82.10;;;;;;5038474;28;20614;-68
2022/10/31 12:17:02;;;;;;;31.30;20.20;;;17.40;81.90;;;;;;5033547;28;20092;-67
2022/10/31 12:19:40;;;;;;;27.10;16.27;;;17.50;82.40;;;;;;5042378;28;20037;-68
2022/10/31 12:22:11;;;;;;;27.27;18.13;;;17.60;82.10;;;;;;5038286;28;20032;-68
2022/10/31 12:24:59;;;;;;;26.83;17.88;;;17.70;82.00;;;;;;5042396;28;20509;-69
2022/10/31 12:27:31;;;;;;;28.38;18.75;;;17.80;81.80;;;;;;5046058;28;20514;-69
2022/10/31 12:30:18;;;;;;;32.47;21.15;;;17.90;81.40;;;;;;5037551;28;20025;-68
2022/10/31 12:33:16;;;;;;;28.58;19.17;;;17.90;80.70;;;;;;5033334;28;20056;-69
2022/10/31 12:35:51;;;;;;;30.88;19.92;;;17.80;80.80;;;;;;5037099;28;20079;-68
2022/10/31 12:38:56;;;;;;;24.08;17.15;;;17.80;80.80;;;;;;5040830;28;20132;-69
2022/10/31 12:41:27;;;;;;;36.22;21.63;;;17.80;81.00;;;;;;5036005;28;20045;-68
2022/10/31 12:43:53;;;;;;;28.63;18.77;;;17.80;80.90;;;;;;5043837;28;20116;-69
2022/10/31 12:46:42;;;;;;;33.17;20.63;;;17.80;81.30;;;;;;5047034;28;20120;-69
2022/10/31 12:49:33;;;;;;;32.90;21.55;;;17.80;81.30;;;;;;5049417;28;20032;-68
2022/10/31 12:52:07;;;;;;;27.90;18.65;;;17.80;81.40;;;;;;5046342;28;20056;-69
2022/10/31 12:54:58;;;;;;;30.25;20.70;;;17.70;81.50;;;;;;5045772;28;20043;-69
2022/10/31 12:58:01;;;;;;;31.52;19.75;;;17.80;81.70;;;;;;5046048;28;20127;-68